Endeavour — C6BE4 — position and weather

sailwx.info

Track history (hours):
 
Tides and Currents Weather Stations Pressure Air Temp Water Temp Dewpoint Dewpoint Depression Visibility Wind Speed Wind Dir Waves Ship Positions

Endeavour

Operator: Lindblad Expeditions

Last reported at 2019-Jul-19 06:35 UTC. Time now 2019-Jul-20 13:37 UTC.
Position N 25°38' E 120°29'.

Length 190 m; draft 11.7 m.

Type: Cargo ship. MMSI: 311000239.

Date/timePositionNaut miles runAvg speedWind from/ knotsBaromVisibWave heightAir tempDewpointWater temp
2019-Jul-19 06:35N 25°38' E 120°29'5814.0
2019-Jul-19 02:24N 24°54' E 119°47'614.7
2019-Jul-19 02:00N 24°50' E 119°42'714.5
2019-Jul-19 01:30N 24°45' E 119°36'714.9
2019-Jul-19 01:00N 24°41' E 119°29'714.9
2019-Jul-19 00:31N 24°36' E 119°23'914.7
2019-Jul-18 23:52N 24°31' E 119°15'814.3
2019-Jul-18 23:17N 24°25' E 119°08'33513.4
2019-Jul-17 22:12N 21°17' E 114°07'2113.8
2019-Jul-17 20:42N 21°08' E 113°46'2413.8
2019-Jul-17 19:00N 21°01' E 113°23'813.5
2019-Jul-17 18:26N 20°58' E 113°15'613.6
2019-Jul-17 18:00N 20°56' E 113°09'4413.7
2019-Jul-17 14:49N 20°42' E 112°25'1312.5
2019-Jul-17 13:46N 20°36' E 112°12'1510.3
2019-Jul-17 12:17N 20°32' E 111°57'713.2
2019-Jul-17 11:48N 20°30' E 111°50'413.6
2019-Jul-17 11:29N 20°29' E 111°46'713.9
2019-Jul-17 10:57N 20°26' E 111°38'3012.3
2019-Jul-17 08:31N 20°16' E 111°08'011.5
2019-Jul-17 08:29N 20°16' E 111°08'710.7
2019-Jul-17 07:52N 20°15' E 111°01'1610.2
2019-Jul-17 06:19N 20°14' E 110°44'510.0
2019-Jul-17 05:46N 20°14' E 110°38'310.4
2019-Jul-17 05:27N 20°14' E 110°35'4 9.8
2019-Jul-17 05:00N 20°14' E 110°30'5 9.7
2019-Jul-17 04:30N 20°12' E 110°25'5 9.6
2019-Jul-17 04:00N 20°11' E 110°20'4 8.4
2019-Jul-17 03:30N 20°10' E 110°16'4 8.3
2019-Jul-17 03:00N 20°09' E 110°12'5 9.8
2019-Jul-17 02:30N 20°09' E 110°06'5 9.6
2019-Jul-17 02:00N 20°08' E 110°01'5 9.4
2019-Jul-17 01:30N 20°07' E 109°56'5 9.4
2019-Jul-17 01:00N 20°06' E 109°52'5 9.7
2019-Jul-17 00:30N 20°05' E 109°47'2510.5
2019-Jul-16 22:06N 20°02' E 109°20'710.9
2019-Jul-16 21:27N 20°01' E 109°12'612.4
2019-Jul-16 21:00N 20°02' E 109°06'812.5
2019-Jul-16 20:23N 20°05' E 108°59'713.4
2019-Jul-16 19:49N 20°11' E 108°54'513.6
2019-Jul-16 19:28N 20°15' E 108°51'713.1
2019-Jul-16 18:57N 20°18' E 108°45'613.0
2019-Jul-16 18:28N 20°22' E 108°40'613.5
2019-Jul-16 18:00N 20°28' E 108°36'713.5
2019-Jul-16 17:30N 20°33' E 108°32'713.7
2019-Jul-16 17:00N 20°39' E 108°28'713.2
2019-Jul-16 16:30N 20°45' E 108°25'612.4
2019-Jul-16 16:00N 20°51' E 108°22'3 5.9
2019-Jul-16 15:30N 20°53' E 108°21'4 8.0
2019-Jul-16 15:00N 20°57' E 108°21'713.1
2019-Jul-16 14:29N 21°04' E 108°19'713.5
2019-Jul-16 14:00N 21°11' E 108°20'613.0
2019-Jul-16 13:30N 21°17' E 108°21'612.2
2019-Jul-16 13:00N 21°23' E 108°22'510.4
2019-Jul-16 12:30N 21°28' E 108°21'4 8.4
2019-Jul-16 12:00N 21°32' E 108°21'3 5.2
2019-Jul-16 11:31N 21°35' E 108°20'0 0.3
2019-Jul-16 10:59N 21°35' E 108°20'0 0.0
2019-Jul-16 10:29N 21°35' E 108°20'0 0.0
2019-Jul-16 09:59N 21°35' E 108°20'0 0.0
2019-Jul-16 09:29N 21°35' E 108°20'0 0.0
2019-Jul-16 08:59N 21°35' E 108°20'0 0.0
2019-Jul-16 08:29N 21°35' E 108°20'0 0.0
2019-Jul-16 07:59N 21°35' E 108°20'0 0.0
2019-Jul-16 07:29N 21°35' E 108°20'0 0.0
2019-Jul-16 06:59N 21°35' E 108°20'0 0.0
2019-Jul-16 06:29N 21°35' E 108°20'0 0.0
2019-Jul-16 05:59N 21°35' E 108°20'0 0.0
2019-Jul-16 05:29N 21°35' E 108°20'0 0.0
2019-Jul-16 04:59N 21°35' E 108°20'0 0.0
2019-Jul-16 04:29N 21°35' E 108°20'0 0.0
2019-Jul-16 03:59N 21°35' E 108°20'0 0.0
2019-Jul-16 03:29N 21°35' E 108°20'0 0.0
2019-Jul-16 02:59N 21°35' E 108°20'0 0.0
2019-Jul-16 02:29N 21°35' E 108°20'0 0.0
2019-Jul-16 01:59N 21°35' E 108°20'0 0.0
2019-Jul-16 01:29N 21°35' E 108°20'0 0.0
2019-Jul-16 00:59N 21°35' E 108°20'0 0.0
2019-Jul-16 00:29N 21°35' E 108°20'0 0.0
2019-Jul-15 23:59N 21°35' E 108°20'0 0.0
2019-Jul-15 23:29N 21°35' E 108°20'0 0.0
2019-Jul-15 22:59N 21°35' E 108°20'0 0.0
2019-Jul-15 22:29N 21°35' E 108°20'0 0.0
2019-Jul-15 21:59N 21°35' E 108°20'0 0.0
2019-Jul-15 21:29N 21°35' E 108°20'0 0.0
2019-Jul-15 20:59N 21°35' E 108°20'0 0.0
2019-Jul-15 20:29N 21°35' E 108°20'0 0.0
2019-Jul-15 19:59N 21°35' E 108°20'0 0.0
2019-Jul-15 19:29N 21°35' E 108°20'0 0.0
2019-Jul-15 18:59N 21°35' E 108°20'0 0.0
2019-Jul-15 18:29N 21°35' E 108°20'0 0.0
2019-Jul-15 17:59N 21°35' E 108°20'0 0.0
2019-Jul-15 17:29N 21°35' E 108°20'0 0.0
2019-Jul-15 16:59N 21°35' E 108°20'0 0.0
2019-Jul-15 16:29N 21°35' E 108°20'0 0.0
2019-Jul-15 15:59N 21°35' E 108°20'0 0.0
2019-Jul-15 15:29N 21°35' E 108°20'0 0.0
2019-Jul-15 14:59N 21°35' E 108°20'0 0.0
2019-Jul-15 14:29N 21°35' E 108°20'0 0.0
2019-Jul-15 13:59N 21°35' E 108°20'0 0.0
2019-Jul-15 13:29N 21°35' E 108°20'0 0.0
2019-Jul-15 12:59N 21°35' E 108°20'0 0.0
2019-Jul-15 12:29N 21°35' E 108°20'0 0.0
2019-Jul-15 11:59N 21°35' E 108°20'0 0.0
2019-Jul-15 11:29N 21°35' E 108°20'0 0.0
2019-Jul-15 10:59N 21°35' E 108°20'0 0.0
2019-Jul-15 10:29N 21°35' E 108°20'0 0.0
2019-Jul-15 09:59N 21°35' E 108°20'0 0.0
2019-Jul-15 09:29N 21°35' E 108°20'0 0.0
2019-Jul-15 08:59N 21°35' E 108°20'0 0.0
2019-Jul-15 08:29N 21°35' E 108°20'0 0.0
2019-Jul-15 07:59N 21°35' E 108°20'0 0.0
2019-Jul-15 07:29N 21°35' E 108°20'0 0.0
2019-Jul-15 06:59N 21°35' E 108°20'0 0.0
2019-Jul-15 06:29N 21°35' E 108°20'0 0.0
2019-Jul-15 05:59N 21°35' E 108°20'0 0.0
2019-Jul-15 05:29N 21°35' E 108°20'0 0.0
2019-Jul-15 04:59N 21°35' E 108°20'0 0.0
2019-Jul-15 04:29N 21°35' E 108°20'0 0.0
2019-Jul-15 03:59N 21°35' E 108°20'0 0.0
2019-Jul-15 03:29N 21°35' E 108°20'0 0.0
2019-Jul-15 02:59N 21°35' E 108°20'0 0.0
2019-Jul-15 02:29N 21°35' E 108°20'0 0.0
2019-Jul-15 01:59N 21°35' E 108°20'0 0.0
2019-Jul-15 01:29N 21°35' E 108°20'0 0.0
2019-Jul-15 00:59N 21°35' E 108°20'0 0.0
2019-Jul-15 00:29N 21°35' E 108°20'0 0.0
2019-Jul-14 23:59N 21°35' E 108°20'0 0.0
2019-Jul-14 23:29N 21°35' E 108°20'0 0.0
2019-Jul-14 22:59N 21°35' E 108°20'0 0.0
2019-Jul-14 22:29N 21°35' E 108°20'0 0.0
2019-Jul-14 21:59N 21°35' E 108°20'0 0.0
2019-Jul-14 21:29N 21°35' E 108°20'0 0.0
2019-Jul-14 20:59N 21°35' E 108°20'0 0.0
2019-Jul-14 20:29N 21°35' E 108°20'0 0.0
2019-Jul-14 19:59N 21°35' E 108°20'0 0.0
2019-Jul-14 19:29N 21°35' E 108°20'0 0.0
2019-Jul-14 18:59N 21°35' E 108°20'0 0.0
2019-Jul-14 18:29N 21°35' E 108°20'0 0.0
2019-Jul-14 17:59N 21°35' E 108°20'0 0.0
2019-Jul-14 17:29N 21°35' E 108°20'0 0.0
2019-Jul-14 16:59N 21°35' E 108°20'0 0.0
2019-Jul-14 16:29N 21°35' E 108°20'0 0.0
2019-Jul-14 15:59N 21°35' E 108°20'0 0.0
2019-Jul-14 15:29N 21°35' E 108°20'0 0.0
2019-Jul-14 14:59N 21°35' E 108°20'0 0.0
2019-Jul-14 14:29N 21°35' E 108°20'0 0.0
2019-Jul-14 13:59N 21°35' E 108°20'0 0.0
2019-Jul-14 13:29N 21°35' E 108°20'0 0.0
2019-Jul-14 12:59N 21°35' E 108°20'0 0.0
2019-Jul-14 12:29N 21°35' E 108°20'0 0.0
2019-Jul-14 11:59N 21°35' E 108°20'0 0.0
2019-Jul-14 11:29N 21°35' E 108°20'0 0.0
2019-Jul-14 10:59N 21°35' E 108°20'0 0.0
2019-Jul-14 10:29N 21°35' E 108°20'0 0.0
2019-Jul-14 09:59N 21°35' E 108°20'0 0.0
2019-Jul-14 09:29N 21°35' E 108°20'0 0.0
2019-Jul-14 08:59N 21°35' E 108°20'0 0.0
2019-Jul-14 08:29N 21°35' E 108°20'0 0.0
2019-Jul-14 07:59N 21°35' E 108°20'0 0.0
2019-Jul-14 07:29N 21°35' E 108°20'0 0.0
2019-Jul-14 06:59N 21°35' E 108°20'0 0.0
2019-Jul-14 06:29N 21°35' E 108°20'0 0.0
2019-Jul-14 05:59N 21°35' E 108°20'0 0.0
2019-Jul-14 05:29N 21°35' E 108°20'0 0.0
2019-Jul-14 04:59N 21°35' E 108°20'0 0.0
2019-Jul-14 04:29N 21°35' E 108°20'0 0.0
2019-Jul-14 03:59N 21°35' E 108°20'0 0.0
2019-Jul-14 03:29N 21°35' E 108°20'0 0.0
2019-Jul-14 02:59N 21°35' E 108°20'0 0.0
2019-Jul-14 02:29N 21°35' E 108°20'0 0.0
2019-Jul-14 01:59N 21°35' E 108°20'0 0.0
2019-Jul-14 01:29N 21°35' E 108°20'0 0.0
2019-Jul-14 00:59N 21°35' E 108°20'0 0.0
2019-Jul-14 00:29N 21°35' E 108°20'0 0.0
2019-Jul-13 23:59N 21°35' E 108°20'0 0.0
2019-Jul-13 23:29N 21°35' E 108°20'0 0.0
2019-Jul-13 22:59N 21°35' E 108°20'0 0.0
2019-Jul-13 22:29N 21°35' E 108°20'0 0.0
2019-Jul-13 21:59N 21°35' E 108°20'0 0.0
2019-Jul-13 21:29N 21°35' E 108°20'0 0.0
2019-Jul-13 20:59N 21°35' E 108°20'0 0.0
2019-Jul-13 20:29N 21°35' E 108°20'0 0.0
2019-Jul-13 19:59N 21°35' E 108°20'0 0.0
2019-Jul-13 19:29N 21°35' E 108°20'0 0.0
2019-Jul-13 18:59N 21°35' E 108°20'0 0.0
2019-Jul-13 18:29N 21°35' E 108°20'0 0.0
2019-Jul-13 17:59N 21°35' E 108°20'0 0.0
2019-Jul-13 17:29N 21°35' E 108°20'0 0.0
2019-Jul-13 16:59N 21°35' E 108°20'0 0.0
2019-Jul-13 16:29N 21°35' E 108°20'0 0.0
2019-Jul-13 15:59N 21°35' E 108°20'0 0.0
2019-Jul-13 15:29N 21°35' E 108°20'0 0.0
2019-Jul-13 14:59N 21°35' E 108°20'0 0.0
2019-Jul-13 14:29N 21°35' E 108°20'0 0.0
2019-Jul-13 13:59N 21°35' E 108°20'0 0.0
2019-Jul-13 13:29N 21°35' E 108°20'0 0.0
2019-Jul-13 12:59N 21°35' E 108°20'0 0.0
2019-Jul-13 12:29N 21°35' E 108°20'0 0.0
2019-Jul-13 11:59N 21°35' E 108°20'0 0.0
2019-Jul-13 11:29N 21°35' E 108°20'0 0.0
2019-Jul-13 10:59N 21°35' E 108°20'0 0.0
2019-Jul-13 10:29N 21°35' E 108°20'0 0.0
2019-Jul-13 09:59N 21°35' E 108°20'0 0.0
2019-Jul-13 09:29N 21°35' E 108°20'0 0.0
2019-Jul-13 08:59N 21°35' E 108°20'0 0.0
2019-Jul-13 08:29N 21°35' E 108°20'0 0.0
2019-Jul-13 07:59N 21°35' E 108°20'0 0.0
2019-Jul-13 07:29N 21°35' E 108°20'0 0.0
2019-Jul-13 06:59N 21°35' E 108°20'0 0.0
2019-Jul-13 06:29N 21°35' E 108°20'0 0.0
2019-Jul-13 05:59N 21°35' E 108°20'0 0.0
2019-Jul-13 05:29N 21°35' E 108°20'0 0.0
2019-Jul-13 04:59N 21°35' E 108°20'0 0.0
2019-Jul-13 04:29N 21°35' E 108°20'0 0.0
2019-Jul-13 03:59N 21°35' E 108°20'0 0.0
2019-Jul-13 03:29N 21°35' E 108°20'0 0.0
2019-Jul-13 02:59N 21°35' E 108°20'0 0.0
2019-Jul-13 02:29N 21°35' E 108°20'0 0.0
2019-Jul-13 01:59N 21°35' E 108°20'0 0.0
2019-Jul-13 01:29N 21°35' E 108°20'0 0.0
2019-Jul-13 00:59N 21°35' E 108°20'0 0.0
2019-Jul-13 00:29N 21°35' E 108°20'0 0.0
2019-Jul-12 23:59N 21°35' E 108°20'0 0.0
2019-Jul-12 23:29N 21°35' E 108°20'0 0.0
2019-Jul-12 22:59N 21°35' E 108°20'0 0.0
2019-Jul-12 22:29N 21°35' E 108°20'0 0.0
2019-Jul-12 21:59N 21°35' E 108°20'0 0.0
2019-Jul-12 21:29N 21°35' E 108°20'0 0.0
2019-Jul-12 20:59N 21°35' E 108°20'0 0.0
2019-Jul-12 20:29N 21°35' E 108°20'0 0.0
2019-Jul-12 19:59N 21°35' E 108°20'0 0.0
2019-Jul-12 19:29N 21°35' E 108°20'0 0.0
2019-Jul-12 18:59N 21°35' E 108°20'0 0.0
2019-Jul-12 18:29N 21°35' E 108°20'0 0.0
2019-Jul-12 17:59N 21°35' E 108°20'0 0.0
2019-Jul-12 17:29N 21°35' E 108°20'0 0.0
2019-Jul-12 16:59N 21°35' E 108°20'0 0.0
2019-Jul-12 16:29N 21°35' E 108°20'0 0.0
2019-Jul-12 15:59N 21°35' E 108°20'0 0.0
2019-Jul-12 15:29N 21°35' E 108°20'0 0.0
2019-Jul-12 14:59N 21°35' E 108°20'0 0.0
2019-Jul-12 14:29N 21°35' E 108°20'0 0.0
2019-Jul-12 13:59N 21°35' E 108°20'0 0.0
2019-Jul-12 13:29N 21°35' E 108°20'0 0.0
2019-Jul-12 12:59N 21°35' E 108°20'0 0.0
2019-Jul-12 12:29N 21°35' E 108°20'0 0.0
2019-Jul-12 11:59N 21°35' E 108°20'0 0.0
2019-Jul-12 11:29N 21°35' E 108°20'0 0.0
2019-Jul-12 10:59N 21°35' E 108°20'0 0.0
2019-Jul-12 10:29N 21°35' E 108°20'0 0.0
2019-Jul-12 09:59N 21°35' E 108°20'0 0.0
2019-Jul-12 09:29N 21°35' E 108°20'0 0.0
2019-Jul-12 08:59N 21°35' E 108°20'0 0.0
2019-Jul-12 08:29N 21°35' E 108°20'0 0.0
2019-Jul-12 07:59N 21°35' E 108°20'0 0.0
2019-Jul-12 07:29N 21°35' E 108°20'0 0.0
2019-Jul-12 06:59N 21°35' E 108°20'0 0.0
2019-Jul-12 06:29N 21°35' E 108°20'0 0.0
2019-Jul-12 05:59N 21°35' E 108°20'0 0.0
2019-Jul-12 05:29N 21°35' E 108°20'0 0.0
2019-Jul-12 04:59N 21°35' E 108°20'0 0.0
2019-Jul-12 04:29N 21°35' E 108°20'0 0.0
2019-Jul-12 03:59N 21°35' E 108°20'0 0.0
2019-Jul-12 03:29N 21°35' E 108°20'0 0.0
2019-Jul-12 02:59N 21°35' E 108°20'0 0.0
2019-Jul-12 01:59N 21°35' E 108°20'0 0.0
2019-Jul-12 01:29N 21°35' E 108°20'0 0.0
2019-Jul-12 00:59N 21°35' E 108°20'0 0.0
2019-Jul-12 00:29N 21°35' E 108°20'0 0.0
2019-Jul-11 23:59N 21°35' E 108°20'0 0.0
2019-Jul-11 23:29N 21°35' E 108°20'0 0.0
2019-Jul-11 22:59N 21°35' E 108°20'0 0.0
2019-Jul-11 22:29N 21°35' E 108°20'0 0.0
2019-Jul-11 21:59N 21°35' E 108°20'0 0.0
2019-Jul-11 21:29N 21°35' E 108°20'0 0.0
2019-Jul-11 20:59N 21°35' E 108°20'0 0.0
2019-Jul-11 20:29N 21°35' E 108°20'0 0.0
2019-Jul-11 19:59N 21°35' E 108°20'0 0.0
2019-Jul-11 19:29N 21°35' E 108°20'0 0.0
2019-Jul-11 18:59N 21°35' E 108°20'0 0.0
2019-Jul-11 18:29N 21°35' E 108°20'0 0.0
2019-Jul-11 17:59N 21°35' E 108°20'0 0.0
2019-Jul-11 17:29N 21°35' E 108°20'0 0.0
2019-Jul-11 16:59N 21°35' E 108°20'0 0.0
2019-Jul-11 16:29N 21°35' E 108°20'0 0.0
2019-Jul-11 15:59N 21°35' E 108°20'0 0.0
2019-Jul-11 15:29N 21°35' E 108°20'0 0.0
2019-Jul-11 14:59N 21°35' E 108°20'0 0.0
2019-Jul-11 14:29N 21°35' E 108°20'0 0.0
2019-Jul-11 13:59N 21°35' E 108°20'0 0.0
2019-Jul-11 13:29N 21°35' E 108°20'0 0.0
2019-Jul-11 12:59N 21°35' E 108°20'0 0.0
2019-Jul-11 12:29N 21°35' E 108°20'0 0.0
2019-Jul-11 12:00N 21°35' E 108°20'1 1.0
2019-Jul-11 11:30N 21°34' E 108°20'3 6.8
2019-Jul-11 11:00N 21°31' E 108°21'4 7.5
2019-Jul-11 10:30N 21°27' E 108°21'1 2.1
2019-Jul-11 10:00N 21°27' E 108°22'1 2.8
2019-Jul-11 09:30N 21°25' E 108°23'0 0.5
2019-Jul-11 08:59N 21°26' E 108°23'0 0.1
2019-Jul-11 08:29N 21°26' E 108°23'0 0.0
2019-Jul-11 07:59N 21°26' E 108°23'0 0.0
2019-Jul-11 07:29N 21°26' E 108°23'0 0.0
2019-Jul-11 06:59N 21°26' E 108°23'0 0.0
2019-Jul-11 06:29N 21°26' E 108°23'0 0.0
2019-Jul-11 05:59N 21°26' E 108°23'0 0.0
2019-Jul-11 05:29N 21°26' E 108°23'0 0.2
2019-Jul-11 04:59N 21°26' E 108°23'0 0.6
2019-Jul-11 04:30N 21°25' E 108°23'2 4.5
2019-Jul-11 04:00N 21°23' E 108°23'3 6.9
2019-Jul-11 03:30N 21°20' E 108°23'5 9.3
2019-Jul-11 03:00N 21°15' E 108°25'4 8.6
2019-Jul-11 02:30N 21°11' E 108°25'611.6
2019-Jul-11 01:59N 21°06' E 108°21'3812.4
2019-Jul-10 22:57N 20°33' E 108°02'2211.3
2019-Jul-10 20:58N 20°11' E 108°00'613.2
2019-Jul-10 20:30N 20°05' E 108°01'  
Track history (hours):
 
Tides and Currents Weather Stations Pressure Air Temp Water Temp Dewpoint Dewpoint Depression Visibility Wind Speed Wind Dir Waves Ship Positions

Endeavour

Operator: Lindblad Expeditions

Last reported at 2019-Jul-19 06:35 UTC. Time now 2019-Jul-20 13:37 UTC.
Position N 25°38' E 120°29'.

Length 190 m; draft 11.7 m.

Type: Cargo ship. MMSI: 311000239.

Date/timePositionNaut miles runAvg speedWind from/ knotsBaromVisibWave heightAir tempDewpointWater temp
2019-Jul-19 06:35N 25°38' E 120°29'5814.0
2019-Jul-19 02:24N 24°54' E 119°47'614.7
2019-Jul-19 02:00N 24°50' E 119°42'714.5
2019-Jul-19 01:30N 24°45' E 119°36'714.9
2019-Jul-19 01:00N 24°41' E 119°29'714.9
2019-Jul-19 00:31N 24°36' E 119°23'914.7
2019-Jul-18 23:52N 24°31' E 119°15'814.3
2019-Jul-18 23:17N 24°25' E 119°08'33513.4
2019-Jul-17 22:12N 21°17' E 114°07'2113.8
2019-Jul-17 20:42N 21°08' E 113°46'2413.8
2019-Jul-17 19:00N 21°01' E 113°23'813.5
2019-Jul-17 18:26N 20°58' E 113°15'613.6
2019-Jul-17 18:00N 20°56' E 113°09'4413.7
2019-Jul-17 14:49N 20°42' E 112°25'1312.5
2019-Jul-17 13:46N 20°36' E 112°12'1510.3
2019-Jul-17 12:17N 20°32' E 111°57'713.2
2019-Jul-17 11:48N 20°30' E 111°50'413.6
2019-Jul-17 11:29N 20°29' E 111°46'713.9
2019-Jul-17 10:57N 20°26' E 111°38'3012.3
2019-Jul-17 08:31N 20°16' E 111°08'011.5
2019-Jul-17 08:29N 20°16' E 111°08'710.7
2019-Jul-17 07:52N 20°15' E 111°01'1610.2
2019-Jul-17 06:19N 20°14' E 110°44'510.0
2019-Jul-17 05:46N 20°14' E 110°38'310.4
2019-Jul-17 05:27N 20°14' E 110°35'4 9.8
2019-Jul-17 05:00N 20°14' E 110°30'5 9.7
2019-Jul-17 04:30N 20°12' E 110°25'5 9.6
2019-Jul-17 04:00N 20°11' E 110°20'4 8.4
2019-Jul-17 03:30N 20°10' E 110°16'4 8.3
2019-Jul-17 03:00N 20°09' E 110°12'5 9.8
2019-Jul-17 02:30N 20°09' E 110°06'5 9.6
2019-Jul-17 02:00N 20°08' E 110°01'5 9.4
2019-Jul-17 01:30N 20°07' E 109°56'5 9.4
2019-Jul-17 01:00N 20°06' E 109°52'5 9.7
2019-Jul-17 00:30N 20°05' E 109°47'2510.5
2019-Jul-16 22:06N 20°02' E 109°20'710.9
2019-Jul-16 21:27N 20°01' E 109°12'612.4
2019-Jul-16 21:00N 20°02' E 109°06'812.5
2019-Jul-16 20:23N 20°05' E 108°59'713.4
2019-Jul-16 19:49N 20°11' E 108°54'513.6
2019-Jul-16 19:28N 20°15' E 108°51'713.1
2019-Jul-16 18:57N 20°18' E 108°45'613.0
2019-Jul-16 18:28N 20°22' E 108°40'613.5
2019-Jul-16 18:00N 20°28' E 108°36'713.5
2019-Jul-16 17:30N 20°33' E 108°32'713.7
2019-Jul-16 17:00N 20°39' E 108°28'713.2
2019-Jul-16 16:30N 20°45' E 108°25'612.4
2019-Jul-16 16:00N 20°51' E 108°22'3 5.9
2019-Jul-16 15:30N 20°53' E 108°21'4 8.0
2019-Jul-16 15:00N 20°57' E 108°21'713.1
2019-Jul-16 14:29N 21°04' E 108°19'713.5
2019-Jul-16 14:00N 21°11' E 108°20'613.0
2019-Jul-16 13:30N 21°17' E 108°21'612.2
2019-Jul-16 13:00N 21°23' E 108°22'510.4
2019-Jul-16 12:30N 21°28' E 108°21'4 8.4
2019-Jul-16 12:00N 21°32' E 108°21'3 5.2
2019-Jul-16 11:31N 21°35' E 108°20'0 0.3
2019-Jul-16 10:59N 21°35' E 108°20'0 0.0
2019-Jul-16 10:29N 21°35' E 108°20'0 0.0
2019-Jul-16 09:59N 21°35' E 108°20'0 0.0
2019-Jul-16 09:29N 21°35' E 108°20'0 0.0
2019-Jul-16 08:59N 21°35' E 108°20'0 0.0
2019-Jul-16 08:29N 21°35' E 108°20'0 0.0
2019-Jul-16 07:59N 21°35' E 108°20'0 0.0
2019-Jul-16 07:29N 21°35' E 108°20'0 0.0
2019-Jul-16 06:59N 21°35' E 108°20'0 0.0
2019-Jul-16 06:29N 21°35' E 108°20'0 0.0
2019-Jul-16 05:59N 21°35' E 108°20'0 0.0
2019-Jul-16 05:29N 21°35' E 108°20'0 0.0
2019-Jul-16 04:59N 21°35' E 108°20'0 0.0
2019-Jul-16 04:29N 21°35' E 108°20'0 0.0
2019-Jul-16 03:59N 21°35' E 108°20'0 0.0
2019-Jul-16 03:29N 21°35' E 108°20'0 0.0
2019-Jul-16 02:59N 21°35' E 108°20'0 0.0
2019-Jul-16 02:29N 21°35' E 108°20'0 0.0
2019-Jul-16 01:59N 21°35' E 108°20'0 0.0
2019-Jul-16 01:29N 21°35' E 108°20'0 0.0
2019-Jul-16 00:59N 21°35' E 108°20'0 0.0
2019-Jul-16 00:29N 21°35' E 108°20'0 0.0
2019-Jul-15 23:59N 21°35' E 108°20'0 0.0
2019-Jul-15 23:29N 21°35' E 108°20'0 0.0
2019-Jul-15 22:59N 21°35' E 108°20'0 0.0
2019-Jul-15 22:29N 21°35' E 108°20'0 0.0
2019-Jul-15 21:59N 21°35' E 108°20'0 0.0
2019-Jul-15 21:29N 21°35' E 108°20'0 0.0
2019-Jul-15 20:59N 21°35' E 108°20'0 0.0
2019-Jul-15 20:29N 21°35' E 108°20'0 0.0
2019-Jul-15 19:59N 21°35' E 108°20'0 0.0
2019-Jul-15 19:29N 21°35' E 108°20'0 0.0
2019-Jul-15 18:59N 21°35' E 108°20'0 0.0
2019-Jul-15 18:29N 21°35' E 108°20'0 0.0
2019-Jul-15 17:59N 21°35' E 108°20'0 0.0
2019-Jul-15 17:29N 21°35' E 108°20'0 0.0
2019-Jul-15 16:59N 21°35' E 108°20'0 0.0
2019-Jul-15 16:29N 21°35' E 108°20'0 0.0
2019-Jul-15 15:59N 21°35' E 108°20'0 0.0
2019-Jul-15 15:29N 21°35' E 108°20'0 0.0
2019-Jul-15 14:59N 21°35' E 108°20'0 0.0
2019-Jul-15 14:29N 21°35' E 108°20'0 0.0
2019-Jul-15 13:59N 21°35' E 108°20'0 0.0
2019-Jul-15 13:29N 21°35' E 108°20'0 0.0
2019-Jul-15 12:59N 21°35' E 108°20'0 0.0
2019-Jul-15 12:29N 21°35' E 108°20'0 0.0
2019-Jul-15 11:59N 21°35' E 108°20'0 0.0
2019-Jul-15 11:29N 21°35' E 108°20'0 0.0
2019-Jul-15 10:59N 21°35' E 108°20'0 0.0
2019-Jul-15 10:29N 21°35' E 108°20'0 0.0
2019-Jul-15 09:59N 21°35' E 108°20'0 0.0
2019-Jul-15 09:29N 21°35' E 108°20'0 0.0
2019-Jul-15 08:59N 21°35' E 108°20'0 0.0
2019-Jul-15 08:29N 21°35' E 108°20'0 0.0
2019-Jul-15 07:59N 21°35' E 108°20'0 0.0
2019-Jul-15 07:29N 21°35' E 108°20'0 0.0
2019-Jul-15 06:59N 21°35' E 108°20'0 0.0
2019-Jul-15 06:29N 21°35' E 108°20'0 0.0
2019-Jul-15 05:59N 21°35' E 108°20'0 0.0
2019-Jul-15 05:29N 21°35' E 108°20'0 0.0
2019-Jul-15 04:59N 21°35' E 108°20'0 0.0
2019-Jul-15 04:29N 21°35' E 108°20'0 0.0
2019-Jul-15 03:59N 21°35' E 108°20'0 0.0
2019-Jul-15 03:29N 21°35' E 108°20'0 0.0
2019-Jul-15 02:59N 21°35' E 108°20'0 0.0
2019-Jul-15 02:29N 21°35' E 108°20'0 0.0
2019-Jul-15 01:59N 21°35' E 108°20'0 0.0
2019-Jul-15 01:29N 21°35' E 108°20'0 0.0
2019-Jul-15 00:59N 21°35' E 108°20'0 0.0
2019-Jul-15 00:29N 21°35' E 108°20'0 0.0
2019-Jul-14 23:59N 21°35' E 108°20'0 0.0
2019-Jul-14 23:29N 21°35' E 108°20'0 0.0
2019-Jul-14 22:59N 21°35' E 108°20'0 0.0
2019-Jul-14 22:29N 21°35' E 108°20'0 0.0
2019-Jul-14 21:59N 21°35' E 108°20'0 0.0
2019-Jul-14 21:29N 21°35' E 108°20'0 0.0
2019-Jul-14 20:59N 21°35' E 108°20'0 0.0
2019-Jul-14 20:29N 21°35' E 108°20'0 0.0
2019-Jul-14 19:59N 21°35' E 108°20'0 0.0
2019-Jul-14 19:29N 21°35' E 108°20'0 0.0
2019-Jul-14 18:59N 21°35' E 108°20'0 0.0
2019-Jul-14 18:29N 21°35' E 108°20'0 0.0
2019-Jul-14 17:59N 21°35' E 108°20'0 0.0
2019-Jul-14 17:29N 21°35' E 108°20'0 0.0
2019-Jul-14 16:59N 21°35' E 108°20'0 0.0
2019-Jul-14 16:29N 21°35' E 108°20'0 0.0
2019-Jul-14 15:59N 21°35' E 108°20'0 0.0
2019-Jul-14 15:29N 21°35' E 108°20'0 0.0
2019-Jul-14 14:59N 21°35' E 108°20'0 0.0
2019-Jul-14 14:29N 21°35' E 108°20'0 0.0
2019-Jul-14 13:59N 21°35' E 108°20'0 0.0
2019-Jul-14 13:29N 21°35' E 108°20'0 0.0
2019-Jul-14 12:59N 21°35' E 108°20'0 0.0
2019-Jul-14 12:29N 21°35' E 108°20'0 0.0
2019-Jul-14 11:59N 21°35' E 108°20'0 0.0
2019-Jul-14 11:29N 21°35' E 108°20'0 0.0
2019-Jul-14 10:59N 21°35' E 108°20'0 0.0
2019-Jul-14 10:29N 21°35' E 108°20'0 0.0
2019-Jul-14 09:59N 21°35' E 108°20'0 0.0
2019-Jul-14 09:29N 21°35' E 108°20'0 0.0
2019-Jul-14 08:59N 21°35' E 108°20'0 0.0
2019-Jul-14 08:29N 21°35' E 108°20'0 0.0
2019-Jul-14 07:59N 21°35' E 108°20'0 0.0
2019-Jul-14 07:29N 21°35' E 108°20'0 0.0
2019-Jul-14 06:59N 21°35' E 108°20'0 0.0
2019-Jul-14 06:29N 21°35' E 108°20'0 0.0
2019-Jul-14 05:59N 21°35' E 108°20'0 0.0
2019-Jul-14 05:29N 21°35' E 108°20'0 0.0
2019-Jul-14 04:59N 21°35' E 108°20'0 0.0
2019-Jul-14 04:29N 21°35' E 108°20'0 0.0
2019-Jul-14 03:59N 21°35' E 108°20'0 0.0
2019-Jul-14 03:29N 21°35' E 108°20'0 0.0
2019-Jul-14 02:59N 21°35' E 108°20'0 0.0
2019-Jul-14 02:29N 21°35' E 108°20'0 0.0
2019-Jul-14 01:59N 21°35' E 108°20'0 0.0
2019-Jul-14 01:29N 21°35' E 108°20'0 0.0
2019-Jul-14 00:59N 21°35' E 108°20'0 0.0
2019-Jul-14 00:29N 21°35' E 108°20'0 0.0
2019-Jul-13 23:59N 21°35' E 108°20'0 0.0
2019-Jul-13 23:29N 21°35' E 108°20'0 0.0
2019-Jul-13 22:59N 21°35' E 108°20'0 0.0
2019-Jul-13 22:29N 21°35' E 108°20'0 0.0
2019-Jul-13 21:59N 21°35' E 108°20'0 0.0
2019-Jul-13 21:29N 21°35' E 108°20'0 0.0
2019-Jul-13 20:59N 21°35' E 108°20'0 0.0
2019-Jul-13 20:29N 21°35' E 108°20'0 0.0
2019-Jul-13 19:59N 21°35' E 108°20'0 0.0
2019-Jul-13 19:29N 21°35' E 108°20'0 0.0
2019-Jul-13 18:59N 21°35' E 108°20'0 0.0
2019-Jul-13 18:29N 21°35' E 108°20'0 0.0
2019-Jul-13 17:59N 21°35' E 108°20'0 0.0
2019-Jul-13 17:29N 21°35' E 108°20'0 0.0
2019-Jul-13 16:59N 21°35' E 108°20'0 0.0
2019-Jul-13 16:29N 21°35' E 108°20'0 0.0
2019-Jul-13 15:59N 21°35' E 108°20'0 0.0
2019-Jul-13 15:29N 21°35' E 108°20'0 0.0
2019-Jul-13 14:59N 21°35' E 108°20'0 0.0
2019-Jul-13 14:29N 21°35' E 108°20'0 0.0
2019-Jul-13 13:59N 21°35' E 108°20'0 0.0
2019-Jul-13 13:29N 21°35' E 108°20'0 0.0
2019-Jul-13 12:59N 21°35' E 108°20'0 0.0
2019-Jul-13 12:29N 21°35' E 108°20'0 0.0
2019-Jul-13 11:59N 21°35' E 108°20'0 0.0
2019-Jul-13 11:29N 21°35' E 108°20'0 0.0
2019-Jul-13 10:59N 21°35' E 108°20'0 0.0
2019-Jul-13 10:29N 21°35' E 108°20'0 0.0
2019-Jul-13 09:59N 21°35' E 108°20'0 0.0
2019-Jul-13 09:29N 21°35' E 108°20'0 0.0
2019-Jul-13 08:59N 21°35' E 108°20'0 0.0
2019-Jul-13 08:29N 21°35' E 108°20'0 0.0
2019-Jul-13 07:59N 21°35' E 108°20'0 0.0
2019-Jul-13 07:29N 21°35' E 108°20'0 0.0
2019-Jul-13 06:59N 21°35' E 108°20'0 0.0
2019-Jul-13 06:29N 21°35' E 108°20'0 0.0
2019-Jul-13 05:59N 21°35' E 108°20'0 0.0
2019-Jul-13 05:29N 21°35' E 108°20'0 0.0
2019-Jul-13 04:59N 21°35' E 108°20'0 0.0
2019-Jul-13 04:29N 21°35' E 108°20'0 0.0
2019-Jul-13 03:59N 21°35' E 108°20'0 0.0
2019-Jul-13 03:29N 21°35' E 108°20'0 0.0
2019-Jul-13 02:59N 21°35' E 108°20'0 0.0
2019-Jul-13 02:29N 21°35' E 108°20'0 0.0
2019-Jul-13 01:59N 21°35' E 108°20'0 0.0
2019-Jul-13 01:29N 21°35' E 108°20'0 0.0
2019-Jul-13 00:59N 21°35' E 108°20'0 0.0
2019-Jul-13 00:29N 21°35' E 108°20'0 0.0
2019-Jul-12 23:59N 21°35' E 108°20'0 0.0
2019-Jul-12 23:29N 21°35' E 108°20'0 0.0
2019-Jul-12 22:59N 21°35' E 108°20'0 0.0
2019-Jul-12 22:29N 21°35' E 108°20'0 0.0
2019-Jul-12 21:59N 21°35' E 108°20'0 0.0
2019-Jul-12 21:29N 21°35' E 108°20'0 0.0
2019-Jul-12 20:59N 21°35' E 108°20'0 0.0
2019-Jul-12 20:29N 21°35' E 108°20'0 0.0
2019-Jul-12 19:59N 21°35' E 108°20'0 0.0
2019-Jul-12 19:29N 21°35' E 108°20'0 0.0
2019-Jul-12 18:59N 21°35' E 108°20'0 0.0
2019-Jul-12 18:29N 21°35' E 108°20'0 0.0
2019-Jul-12 17:59N 21°35' E 108°20'0 0.0
2019-Jul-12 17:29N 21°35' E 108°20'0 0.0
2019-Jul-12 16:59N 21°35' E 108°20'0 0.0
2019-Jul-12 16:29N 21°35' E 108°20'0 0.0
2019-Jul-12 15:59N 21°35' E 108°20'0 0.0
2019-Jul-12 15:29N 21°35' E 108°20'0 0.0
2019-Jul-12 14:59N 21°35' E 108°20'0 0.0
2019-Jul-12 14:29N 21°35' E 108°20'0 0.0
2019-Jul-12 13:59N 21°35' E 108°20'0 0.0
2019-Jul-12 13:29N 21°35' E 108°20'0 0.0
2019-Jul-12 12:59N 21°35' E 108°20'0 0.0
2019-Jul-12 12:29N 21°35' E 108°20'0 0.0
2019-Jul-12 11:59N 21°35' E 108°20'0 0.0
2019-Jul-12 11:29N 21°35' E 108°20'0 0.0
2019-Jul-12 10:59N 21°35' E 108°20'0 0.0
2019-Jul-12 10:29N 21°35' E 108°20'0 0.0
2019-Jul-12 09:59N 21°35' E 108°20'0 0.0
2019-Jul-12 09:29N 21°35' E 108°20'0 0.0
2019-Jul-12 08:59N 21°35' E 108°20'0 0.0
2019-Jul-12 08:29N 21°35' E 108°20'0 0.0
2019-Jul-12 07:59N 21°35' E 108°20'0 0.0
2019-Jul-12 07:29N 21°35' E 108°20'0 0.0
2019-Jul-12 06:59N 21°35' E 108°20'0 0.0
2019-Jul-12 06:29N 21°35' E 108°20'0 0.0
2019-Jul-12 05:59N 21°35' E 108°20'0 0.0
2019-Jul-12 05:29N 21°35' E 108°20'0 0.0
2019-Jul-12 04:59N 21°35' E 108°20'0 0.0
2019-Jul-12 04:29N 21°35' E 108°20'0 0.0
2019-Jul-12 03:59N 21°35' E 108°20'0 0.0
2019-Jul-12 03:29N 21°35' E 108°20'0 0.0
2019-Jul-12 02:59N 21°35' E 108°20'0 0.0
2019-Jul-12 01:59N 21°35' E 108°20'0 0.0
2019-Jul-12 01:29N 21°35' E 108°20'0 0.0
2019-Jul-12 00:59N 21°35' E 108°20'0 0.0
2019-Jul-12 00:29N 21°35' E 108°20'0 0.0
2019-Jul-11 23:59N 21°35' E 108°20'0 0.0
2019-Jul-11 23:29N 21°35' E 108°20'0 0.0
2019-Jul-11 22:59N 21°35' E 108°20'0 0.0
2019-Jul-11 22:29N 21°35' E 108°20'0 0.0
2019-Jul-11 21:59N 21°35' E 108°20'0 0.0
2019-Jul-11 21:29N 21°35' E 108°20'0 0.0
2019-Jul-11 20:59N 21°35' E 108°20'0 0.0
2019-Jul-11 20:29N 21°35' E 108°20'0 0.0
2019-Jul-11 19:59N 21°35' E 108°20'0 0.0
2019-Jul-11 19:29N 21°35' E 108°20'0 0.0
2019-Jul-11 18:59N 21°35' E 108°20'0 0.0
2019-Jul-11 18:29N 21°35' E 108°20'0 0.0
2019-Jul-11 17:59N 21°35' E 108°20'0 0.0
2019-Jul-11 17:29N 21°35' E 108°20'0 0.0
2019-Jul-11 16:59N 21°35' E 108°20'0 0.0
2019-Jul-11 16:29N 21°35' E 108°20'0 0.0
2019-Jul-11 15:59N 21°35' E 108°20'0 0.0
2019-Jul-11 15:29N 21°35' E 108°20'0 0.0
2019-Jul-11 14:59N 21°35' E 108°20'0 0.0
2019-Jul-11 14:29N 21°35' E 108°20'0 0.0
2019-Jul-11 13:59N 21°35' E 108°20'0 0.0
2019-Jul-11 13:29N 21°35' E 108°20'0 0.0
2019-Jul-11 12:59N 21°35' E 108°20'0 0.0
2019-Jul-11 12:29N 21°35' E 108°20'0 0.0
2019-Jul-11 12:00N 21°35' E 108°20'1 1.0
2019-Jul-11 11:30N 21°34' E 108°20'3 6.8
2019-Jul-11 11:00N 21°31' E 108°21'4 7.5
2019-Jul-11 10:30N 21°27' E 108°21'1 2.1
2019-Jul-11 10:00N 21°27' E 108°22'1 2.8
2019-Jul-11 09:30N 21°25' E 108°23'0 0.5
2019-Jul-11 08:59N 21°26' E 108°23'0 0.1
2019-Jul-11 08:29N 21°26' E 108°23'0 0.0
2019-Jul-11 07:59N 21°26' E 108°23'0 0.0
2019-Jul-11 07:29N 21°26' E 108°23'0 0.0
2019-Jul-11 06:59N 21°26' E 108°23'0 0.0
2019-Jul-11 06:29N 21°26' E 108°23'0 0.0
2019-Jul-11 05:59N 21°26' E 108°23'0 0.0
2019-Jul-11 05:29N 21°26' E 108°23'0 0.2
2019-Jul-11 04:59N 21°26' E 108°23'0 0.6
2019-Jul-11 04:30N 21°25' E 108°23'2 4.5
2019-Jul-11 04:00N 21°23' E 108°23'3 6.9
2019-Jul-11 03:30N 21°20' E 108°23'5 9.3
2019-Jul-11 03:00N 21°15' E 108°25'4 8.6
2019-Jul-11 02:30N 21°11' E 108°25'611.6
2019-Jul-11 01:59N 21°06' E 108°21'3812.4
2019-Jul-10 22:57N 20°33' E 108°02'2211.3
2019-Jul-10 20:58N 20°11' E 108°00'613.2
2019-Jul-10 20:30N 20°05' E 108°01'  

Dump ship's entire track history